Time;durP1;ratioP1;P1;durP2;ratioP2;P2;SDS_P1;SDS_P2;PMS_P1;PMS_P2;Temp;Humidity;BMP_temperature;BMP_pressure;BME280_temperature;BME280_humidity;BME280_pressure;Samples;Min_cycle;Max_cycle;Signal;HPM_P1;HPM_P2
2024/03/03 00:01:56;;;;;;;3.60;2.77;;;21.20;55.80;;;;;;5052522;28;20175;-72
2024/03/03 00:04:22;;;;;;;3.93;3.07;;;21.20;55.90;;;;;;5052445;28;20506;-72
2024/03/03 00:06:47;;;;;;;2.60;2.40;;;21.20;55.80;;;;;;5052346;28;20692;-71
2024/03/03 00:09:13;;;;;;;2.80;2.40;;;21.20;55.90;;;;;;5052272;28;20179;-72
2024/03/03 00:11:39;;;;;;;4.33;2.67;;;21.20;55.90;;;;;;5052176;28;20193;-71
2024/03/03 00:14:04;;;;;;;3.67;2.53;;;21.20;55.90;;;;;;5052082;28;20293;-72
2024/03/03 00:16:33;;;;;;;3.20;2.33;;;21.20;55.90;;;;;;5052202;28;20186;-70
2024/03/03 00:18:59;;;;;;;3.87;2.93;;;21.10;55.80;;;;;;5051976;28;20677;-71
2024/03/03 00:21:25;;;;;;;3.23;2.93;;;21.20;55.90;;;;;;5052069;28;20477;-71
2024/03/03 00:23:51;;;;;;;2.80;2.33;;;21.10;55.80;;;;;;5052005;28;20440;-71
2024/03/03 00:26:17;;;;;;;3.37;2.93;;;21.10;55.80;;;;;;5052041;28;20420;-71
2024/03/03 00:28:43;;;;;;;2.83;2.20;;;21.10;55.80;;;;;;5052233;28;20180;-72
2024/03/03 00:31:09;;;;;;;5.50;2.40;;;21.10;55.80;;;;;;5051910;28;20499;-71
2024/03/03 00:33:34;;;;;;;3.03;2.73;;;21.10;55.80;;;;;;5051733;28;20195;-71
2024/03/03 00:36:00;;;;;;;2.93;2.37;;;21.10;55.80;;;;;;5051795;28;20422;-70
2024/03/03 00:38:26;;;;;;;4.27;2.80;;;21.10;55.80;;;;;;5051422;28;20650;-71
2024/03/03 00:40:51;;;;;;;3.30;2.67;;;21.10;55.80;;;;;;5051687;28;20570;-70
2024/03/03 00:43:17;;;;;;;3.57;2.80;;;21.10;55.80;;;;;;5051661;28;20259;-71
2024/03/03 00:45:43;;;;;;;2.87;2.23;;;21.10;55.80;;;;;;5051746;28;20164;-72
2024/03/03 00:48:08;;;;;;;3.40;2.87;;;21.10;55.80;;;;;;5051602;28;20262;-69
2024/03/03 00:50:34;;;;;;;3.57;2.67;;;21.10;55.80;;;;;;5051519;28;20202;-70
2024/03/03 00:53:00;;;;;;;2.50;2.23;;;21.10;55.80;;;;;;5051776;28;20191;-70
2024/03/03 00:55:26;;;;;;;5.20;2.70;;;21.10;55.80;;;;;;5051362;28;20187;-71
2024/03/03 00:57:52;;;;;;;3.40;2.60;;;21.10;55.80;;;;;;5051482;28;20186;-71
2024/03/03 01:00:18;;;;;;;3.00;2.27;;;21.10;55.80;;;;;;5051777;28;20251;-71
2024/03/03 01:02:44;;;;;;;3.60;2.20;;;21.10;55.80;;;;;;5051295;28;20433;-69
2024/03/03 01:05:10;;;;;;;3.50;2.53;;;21.10;55.80;;;;;;5051387;28;20787;-71
2024/03/03 01:07:39;;;;;;;3.37;2.67;;;21.10;55.80;;;;;;5051613;28;20225;-71
2024/03/03 01:10:06;;;;;;;2.93;2.63;;;21.10;55.80;;;;;;5049845;28;20425;-72
2024/03/03 01:12:32;;;;;;;5.43;2.77;;;21.10;55.80;;;;;;5051141;28;20429;-72
2024/03/03 01:14:57;;;;;;;3.20;2.37;;;21.10;55.80;;;;;;5051106;28;20504;-71
2024/03/03 01:17:23;;;;;;;4.20;2.60;;;21.10;55.80;;;;;;5051036;28;20194;-71
2024/03/03 01:19:49;;;;;;;4.43;2.87;;;21.10;55.80;;;;;;5050924;28;20195;-72
2024/03/03 01:22:15;;;;;;;2.73;2.17;;;21.10;55.80;;;;;;5051248;28;20182;-72
2024/03/03 01:24:41;;;;;;;3.33;3.00;;;21.10;55.80;;;;;;5050865;28;20734;-72
2024/03/03 01:27:07;;;;;;;4.30;2.87;;;21.10;55.80;;;;;;5050900;28;20171;-70
2024/03/03 01:29:32;;;;;;;2.40;2.20;;;21.10;55.80;;;;;;5050846;28;21021;-71
2024/03/03 01:31:58;;;;;;;3.90;2.40;;;21.10;55.80;;;;;;5051137;28;20175;-71
2024/03/03 01:34:25;;;;;;;3.30;2.53;;;21.10;55.80;;;;;;5050870;28;20195;-71
2024/03/03 01:36:52;;;;;;;3.77;2.17;;;21.10;55.90;;;;;;5050781;28;20187;-71
2024/03/03 01:39:17;;;;;;;4.27;2.10;;;21.10;55.80;;;;;;5050599;28;20464;-71
2024/03/03 01:41:47;;;;;;;3.03;2.83;;;21.10;55.90;;;;;;5050900;28;20474;-71
2024/03/03 01:44:12;;;;;;;2.50;2.10;;;21.10;55.80;;;;;;5050780;28;20686;-71
2024/03/03 01:46:38;;;;;;;2.83;2.13;;;21.10;55.80;;;;;;5050686;28;20410;-71
2024/03/03 01:49:10;;;;;;;2.97;2.30;;;21.10;55.80;;;;;;5050521;28;20424;-72
2024/03/03 01:51:38;;;;;;;4.47;2.60;;;21.00;55.70;;;;;;5049958;28;20418;-70
2024/03/03 01:54:04;;;;;;;3.50;2.90;;;21.00;55.80;;;;;;5048921;28;20477;-72
2024/03/03 01:56:31;;;;;;;3.33;2.17;;;21.10;55.80;;;;;;5050644;28;20413;-71
2024/03/03 01:59:00;;;;;;;3.57;2.30;;;21.00;55.70;;;;;;5050250;28;20464;-71
2024/03/03 02:01:27;;;;;;;3.20;2.50;;;21.10;55.90;;;;;;5050694;28;20416;-72
2024/03/03 02:03:54;;;;;;;2.40;2.20;;;21.10;55.80;;;;;;5050209;28;20425;-72
2024/03/03 02:06:22;;;;;;;2.30;1.80;;;21.00;55.80;;;;;;5050540;28;20430;-72
2024/03/03 02:08:48;;;;;;;3.33;2.90;;;21.00;55.80;;;;;;5050076;28;20414;-70
2024/03/03 02:11:14;;;;;;;2.70;1.93;;;21.10;55.80;;;;;;5050161;28;20900;-72
2024/03/03 02:13:39;;;;;;;2.50;2.03;;;21.00;55.80;;;;;;5050384;28;20444;-71
2024/03/03 02:16:06;;;;;;;2.40;2.17;;;21.10;55.90;;;;;;5050113;28;20248;-71
2024/03/03 02:18:31;;;;;;;2.20;2.00;;;21.00;55.80;;;;;;5050064;28;20211;-71
2024/03/03 02:20:58;;;;;;;3.40;2.43;;;21.00;55.80;;;;;;5048577;28;20558;-71
2024/03/03 02:23:24;;;;;;;3.00;2.70;;;21.00;55.80;;;;;;5050111;28;20465;-70
2024/03/03 02:25:49;;;;;;;2.37;2.17;;;21.00;55.80;;;;;;5049999;28;20167;-70
2024/03/03 02:28:15;;;;;;;3.67;2.50;;;21.00;55.80;;;;;;5050054;28;20228;-71
2024/03/03 02:30:41;;;;;;;3.33;2.03;;;21.00;55.80;;;;;;5050001;28;20179;-70
2024/03/03 02:33:06;;;;;;;2.13;1.90;;;21.00;55.70;;;;;;5049932;28;20234;-71
2024/03/03 02:35:32;;;;;;;3.10;2.50;;;21.00;55.70;;;;;;5049946;28;20183;-71
2024/03/03 02:37:57;;;;;;;2.70;2.37;;;21.00;55.80;;;;;;5049875;28;20210;-71
2024/03/03 02:40:23;;;;;;;2.30;2.10;;;21.00;55.80;;;;;;5049816;28;20207;-72
2024/03/03 02:42:49;;;;;;;2.57;2.03;;;21.00;55.70;;;;;;5049863;28;20191;-72
2024/03/03 02:45:14;;;;;;;2.47;2.20;;;21.00;55.70;;;;;;5049891;28;20236;-71
2024/03/03 02:47:40;;;;;;;2.30;2.10;;;21.00;55.70;;;;;;5050094;28;20220;-71
2024/03/03 02:50:06;;;;;;;3.43;2.37;;;21.00;55.70;;;;;;5050168;28;20175;-71
2024/03/03 02:52:32;;;;;;;3.53;2.60;;;21.10;55.80;;;;;;5050034;28;20175;-72
2024/03/03 02:54:58;;;;;;;3.03;2.60;;;21.00;55.70;;;;;;5049765;28;20433;-71
2024/03/03 02:57:23;;;;;;;2.50;2.30;;;21.00;55.70;;;;;;5049796;28;20564;-71
2024/03/03 02:59:49;;;;;;;2.43;2.23;;;21.10;55.90;;;;;;5049692;28;20614;-71
2024/03/03 03:02:15;;;;;;;2.33;2.03;;;21.00;55.70;;;;;;5052239;28;20171;-71
2024/03/03 03:04:41;;;;;;;2.70;2.20;;;21.00;55.70;;;;;;5053541;28;20658;-72
2024/03/03 03:07:06;;;;;;;2.53;2.20;;;21.10;55.80;;;;;;5053672;28;20669;-71
2024/03/03 03:09:32;;;;;;;2.90;2.40;;;21.10;55.80;;;;;;5053584;28;20701;-71
2024/03/03 03:11:57;;;;;;;3.50;2.40;;;21.00;55.70;;;;;;5053526;28;20187;-70
2024/03/03 03:14:24;;;;;;;2.80;2.40;;;21.10;55.80;;;;;;5053673;28;20209;-71
2024/03/03 03:16:50;;;;;;;4.43;2.10;;;21.10;55.80;;;;;;5053714;28;20178;-72
2024/03/03 03:19:16;;;;;;;2.37;2.13;;;21.00;55.70;;;;;;5053334;28;20575;-71
2024/03/03 03:21:42;;;;;;;3.03;2.27;;;21.00;55.70;;;;;;5053390;28;20409;-71
2024/03/03 03:24:08;;;;;;;3.70;2.47;;;21.00;55.70;;;;;;5053274;28;20265;-71
2024/03/03 03:26:34;;;;;;;2.30;1.93;;;21.10;55.80;;;;;;5053324;28;20888;-70
2024/03/03 03:29:01;;;;;;;2.13;1.90;;;21.00;55.70;;;;;;5053335;28;20646;-71
2024/03/03 03:31:27;;;;;;;2.40;1.97;;;21.00;55.70;;;;;;5053262;28;20406;-71
2024/03/03 03:33:53;;;;;;;4.80;2.23;;;21.00;55.70;;;;;;5053085;28;20443;-71
2024/03/03 03:36:18;;;;;;;2.73;2.20;;;21.00;55.70;;;;;;5053067;28;20196;-71
2024/03/03 03:38:44;;;;;;;3.27;2.33;;;21.00;55.90;;;;;;5053086;28;20621;-71
2024/03/03 03:41:09;;;;;;;2.10;1.90;;;21.00;55.70;;;;;;5052913;28;20210;-72
2024/03/03 03:43:35;;;;;;;2.33;1.97;;;21.00;55.70;;;;;;5052927;28;20205;-72
2024/03/03 03:46:00;;;;;;;3.30;2.20;;;21.00;55.70;;;;;;5053145;28;20630;-71
2024/03/03 03:48:26;;;;;;;2.83;2.17;;;21.00;55.70;;;;;;5051495;28;20206;-71
2024/03/03 03:50:52;;;;;;;2.97;2.00;;;21.00;55.70;;;;;;5052811;28;20179;-71
2024/03/03 03:53:17;;;;;;;2.70;2.50;;;21.00;55.70;;;;;;5053013;28;20215;-72
2024/03/03 03:55:43;;;;;;;2.37;2.17;;;21.00;55.70;;;;;;5052782;28;20467;-71
2024/03/03 03:58:09;;;;;;;2.03;1.77;;;21.00;55.70;;;;;;5052757;28;20187;-71
2024/03/03 04:00:34;;;;;;;2.80;2.50;;;21.00;55.70;;;;;;5052600;28;20651;-71
2024/03/03 04:03:00;;;;;;;2.20;1.90;;;21.00;55.70;;;;;;5052551;28;20209;-70
2024/03/03 04:05:25;;;;;;;3.90;2.03;;;21.00;55.70;;;;;;5052770;28;20179;-70
2024/03/03 04:07:51;;;;;;;2.27;2.07;;;21.00;55.70;;;;;;5052576;28;20179;-71
2024/03/03 04:10:18;;;;;;;2.10;1.90;;;21.00;55.70;;;;;;5052399;28;20660;-72
2024/03/03 04:12:44;;;;;;;3.10;2.20;;;21.00;55.70;;;;;;5051729;28;20191;-71
2024/03/03 04:15:12;;;;;;;2.17;1.97;;;21.00;55.80;;;;;;5052407;28;20477;-71
2024/03/03 04:17:38;;;;;;;2.23;1.90;;;21.00;55.70;;;;;;5052251;28;20437;-71
2024/03/03 04:20:05;;;;;;;2.63;2.43;;;21.00;55.70;;;;;;5052209;28;20987;-71
2024/03/03 04:22:31;;;;;;;2.20;1.80;;;21.00;55.70;;;;;;5052206;28;20187;-71
2024/03/03 04:24:56;;;;;;;2.30;2.07;;;21.00;55.80;;;;;;5052231;28;20520;-71
2024/03/03 04:27:22;;;;;;;1.90;1.80;;;21.00;55.80;;;;;;5052187;28;20520;-72
2024/03/03 04:29:48;;;;;;;2.23;2.03;;;21.00;55.80;;;;;;5052203;28;20194;-71
2024/03/03 04:32:13;;;;;;;2.00;1.80;;;21.00;55.80;;;;;;5052368;28;20190;-72
2024/03/03 04:34:39;;;;;;;2.40;2.20;;;21.00;55.80;;;;;;5051997;28;20226;-71
2024/03/03 04:37:09;;;;;;;3.07;2.80;;;21.00;55.80;;;;;;5051898;28;20249;-71
2024/03/03 04:39:35;;;;;;;2.30;2.10;;;21.00;56.30;;;;;;5051875;28;20959;-72
2024/03/03 04:42:02;;;;;;;2.67;2.10;;;21.00;55.80;;;;;;5051862;28;20409;-72
2024/03/03 04:44:31;;;;;;;2.10;1.77;;;21.00;56.40;;;;;;5051707;28;20827;-71
2024/03/03 04:46:57;;;;;;;3.43;2.30;;;21.00;55.80;;;;;;5051819;28;20503;-71
2024/03/03 04:49:24;;;;;;;2.00;1.70;;;21.00;55.80;;;;;;5051884;28;20429;-71
2024/03/03 04:51:49;;;;;;;2.33;2.13;;;21.00;55.80;;;;;;5051610;28;20409;-71
2024/03/03 04:54:15;;;;;;;2.07;1.80;;;21.00;55.80;;;;;;5051761;28;21020;-71
2024/03/03 04:56:41;;;;;;;2.20;1.73;;;20.90;55.70;;;;;;5051522;28;20260;-71
2024/03/03 04:59:06;;;;;;;2.50;2.00;;;21.00;55.80;;;;;;5051495;28;20182;-71
2024/03/03 05:01:33;;;;;;;2.17;1.70;;;21.00;55.70;;;;;;5051680;28;20167;-71
2024/03/03 05:03:59;;;;;;;2.40;2.03;;;21.00;55.70;;;;;;5051522;28;20277;-70
2024/03/03 05:06:24;;;;;;;2.50;2.30;;;21.00;55.70;;;;;;5051354;28;20851;-71
2024/03/03 05:08:50;;;;;;;2.13;1.93;;;21.00;55.80;;;;;;5051636;28;20525;-72
2024/03/03 05:11:16;;;;;;;2.37;2.17;;;21.00;55.70;;;;;;5051249;28;20178;-70
2024/03/03 05:13:42;;;;;;;2.50;2.00;;;21.00;55.70;;;;;;5051150;28;20202;-70
2024/03/03 05:16:08;;;;;;;2.80;2.60;;;21.00;55.70;;;;;;5051119;28;20410;-70
2024/03/03 05:18:34;;;;;;;1.83;1.63;;;21.00;55.70;;;;;;5051101;28;20218;-71
2024/03/03 05:21:00;;;;;;;3.03;2.07;;;21.00;55.70;;;;;;5050997;28;20496;-71
2024/03/03 05:23:26;;;;;;;2.60;2.40;;;21.00;55.70;;;;;;5050867;28;20286;-71
2024/03/03 05:25:51;;;;;;;2.43;2.00;;;21.00;55.70;;;;;;5050063;28;20492;-71
2024/03/03 05:28:18;;;;;;;2.20;2.00;;;21.00;55.70;;;;;;5050913;28;20186;-71
2024/03/03 05:30:44;;;;;;;2.53;2.00;;;20.90;55.70;;;;;;5050847;28;20552;-71
2024/03/03 05:33:11;;;;;;;2.80;2.00;;;21.00;55.70;;;;;;5050803;28;20436;-69
2024/03/03 05:35:38;;;;;;;2.13;1.93;;;21.00;55.80;;;;;;5050814;28;20176;-70
2024/03/03 05:38:04;;;;;;;2.23;2.03;;;20.90;55.70;;;;;;5050680;28;20441;-71
2024/03/03 05:40:30;;;;;;;2.10;1.80;;;20.90;55.70;;;;;;5050646;28;20457;-71
2024/03/03 05:42:55;;;;;;;2.07;1.87;;;20.90;55.70;;;;;;5050516;28;20441;-71
2024/03/03 05:45:21;;;;;;;2.30;2.10;;;21.00;55.80;;;;;;5049211;28;20281;-71
2024/03/03 05:47:46;;;;;;;2.53;2.00;;;21.00;55.80;;;;;;5050467;28;20274;-71
2024/03/03 05:50:12;;;;;;;3.43;2.10;;;21.00;55.80;;;;;;5050595;28;20232;-71
2024/03/03 05:52:38;;;;;;;2.40;2.20;;;20.90;55.70;;;;;;5050377;28;20182;-71
2024/03/03 05:55:04;;;;;;;1.83;1.73;;;20.90;55.70;;;;;;5050419;28;20194;-71
2024/03/03 05:57:31;;;;;;;1.97;1.73;;;20.90;55.70;;;;;;5050399;28;20705;-71
2024/03/03 05:59:57;;;;;;;2.33;2.10;;;20.90;55.70;;;;;;5050299;28;20465;-70
2024/03/03 06:02:22;;;;;;;2.20;2.00;;;20.90;55.70;;;;;;5050227;28;20431;-71
2024/03/03 06:04:48;;;;;;;2.47;1.93;;;20.90;55.70;;;;;;5050224;28;20190;-71
2024/03/03 06:07:14;;;;;;;2.87;2.13;;;20.90;55.70;;;;;;5050275;28;20225;-71
2024/03/03 06:09:40;;;;;;;2.00;1.80;;;20.90;55.70;;;;;;5050457;28;20190;-71
2024/03/03 06:12:07;;;;;;;2.57;2.37;;;20.90;55.70;;;;;;5050434;28;20867;-70
2024/03/03 06:14:33;;;;;;;2.10;1.83;;;20.90;55.70;;;;;;5050023;28;20437;-71
2024/03/03 06:16:58;;;;;;;2.13;1.93;;;20.90;55.70;;;;;;5050234;28;20424;-70
2024/03/03 06:19:24;;;;;;;2.30;1.90;;;20.90;55.70;;;;;;5049937;28;20469;-71
2024/03/03 06:21:50;;;;;;;2.30;2.03;;;21.00;55.80;;;;;;5050282;28;20198;-71
2024/03/03 06:24:19;;;;;;;2.03;1.80;;;21.00;55.80;;;;;;5050240;28;20667;-71
2024/03/03 06:26:45;;;;;;;2.80;1.87;;;21.00;55.80;;;;;;5049845;28;20167;-70
2024/03/03 06:29:11;;;;;;;2.50;2.03;;;21.00;55.80;;;;;;5049916;28;20416;-71
2024/03/03 06:31:43;;;;;;;1.80;1.70;;;21.00;55.80;;;;;;5049863;28;20771;-71
2024/03/03 06:34:09;;;;;;;2.10;1.90;;;21.00;55.80;;;;;;5049885;28;20278;-71
2024/03/03 06:36:35;;;;;;;2.77;1.90;;;21.00;55.80;;;;;;5051372;28;20489;-71
2024/03/03 06:39:01;;;;;;;2.23;2.00;;;21.00;55.80;;;;;;5054008;28;20171;-71
2024/03/03 06:41:27;;;;;;;2.27;2.00;;;21.00;55.80;;;;;;5054035;28;20426;-71
2024/03/03 06:43:54;;;;;;;2.10;1.93;;;21.00;55.80;;;;;;5053832;28;20217;-71
2024/03/03 06:46:20;;;;;;;2.13;1.93;;;21.00;55.80;;;;;;5053875;28;20206;-71
2024/03/03 06:48:46;;;;;;;1.83;1.63;;;21.00;55.80;;;;;;5053827;28;20445;-72
2024/03/03 06:51:14;;;;;;;2.93;2.73;;;21.00;55.80;;;;;;5053939;28;20175;-71
2024/03/03 06:53:40;;;;;;;2.53;1.97;;;21.00;55.80;;;;;;5054055;28;20205;-71
2024/03/03 06:56:15;;;;;;;2.07;1.87;;;21.00;55.80;;;;;;5053667;28;20417;-71
2024/03/03 06:58:43;;;;;;;2.00;1.80;;;21.00;55.80;;;;;;5053736;28;20488;-72
2024/03/03 07:01:09;;;;;;;2.20;2.00;;;21.10;55.80;;;;;;5053718;28;21051;-71
2024/03/03 07:04:04;;;;;;;2.10;1.80;;;21.10;55.80;;;;;;5053854;28;20512;-71
2024/03/03 07:06:30;;;;;;;2.10;1.90;;;21.00;55.70;;;;;;5053352;28;20654;-71
2024/03/03 07:08:55;;;;;;;2.60;2.20;;;21.10;55.80;;;;;;5053497;28;20467;-72
2024/03/03 07:11:21;;;;;;;2.53;1.90;;;21.10;55.80;;;;;;5053570;28;20413;-71
2024/03/03 07:13:46;;;;;;;3.27;2.10;;;21.00;55.80;;;;;;5053393;28;20230;-71
2024/03/03 07:16:12;;;;;;;1.80;1.70;;;21.10;55.80;;;;;;5053543;28;20171;-71
2024/03/03 07:18:37;;;;;;;1.60;1.50;;;21.10;55.80;;;;;;5046375;28;20209;-71
2024/03/03 07:21:03;;;;;;;1.90;1.70;;;21.10;55.80;;;;;;5042794;28;20709;-72
2024/03/03 07:23:29;;;;;;;2.37;2.17;;;21.10;55.80;;;;;;5042191;28;20191;-72
2024/03/03 07:25:54;;;;;;;2.17;1.90;;;21.10;55.80;;;;;;5043873;28;20270;-70
2024/03/03 07:28:20;;;;;;;3.33;2.00;;;21.10;55.80;;;;;;5042299;28;20186;-71
2024/03/03 07:30:46;;;;;;;2.60;1.90;;;21.10;55.80;;;;;;5042666;28;20205;-70
2024/03/03 07:33:11;;;;;;;2.43;2.10;;;21.10;55.80;;;;;;5043644;28;20203;-70
2024/03/03 07:35:37;;;;;;;2.47;2.27;;;21.10;55.80;;;;;;5041697;28;20184;-70
2024/03/03 07:38:02;;;;;;;2.00;1.80;;;21.10;55.80;;;;;;5043021;28;20175;-70
2024/03/03 07:40:33;;;;;;;3.60;2.10;;;21.10;55.80;;;;;;5043251;28;20240;-70
2024/03/03 07:42:58;;;;;;;2.80;2.57;;;21.10;55.90;;;;;;5041432;28;20296;-70
2024/03/03 07:45:24;;;;;;;1.63;1.53;;;21.10;55.80;;;;;;5034758;28;20510;-70
2024/03/03 07:47:50;;;;;;;2.13;1.93;;;21.10;55.90;;;;;;5031733;28;20172;-71
2024/03/03 07:50:15;;;;;;;2.73;1.77;;;21.10;55.90;;;;;;5032984;28;20179;-70
2024/03/03 07:52:41;;;;;;;2.53;2.33;;;21.10;55.90;;;;;;5032784;28;20693;-71
2024/03/03 07:55:07;;;;;;;3.20;2.53;;;21.10;55.90;;;;;;5032775;28;20553;-71
2024/03/03 07:57:32;;;;;;;2.17;1.90;;;21.10;55.90;;;;;;5032765;28;20178;-71
2024/03/03 07:59:58;;;;;;;2.50;2.20;;;21.10;55.90;;;;;;5032659;28;20450;-69
2024/03/03 08:02:23;;;;;;;2.13;1.83;;;21.10;55.90;;;;;;5032650;28;20176;-71
2024/03/03 08:04:52;;;;;;;2.00;1.80;;;21.10;55.90;;;;;;5032699;28;20639;-69
2024/03/03 08:07:18;;;;;;;3.03;2.33;;;21.10;55.90;;;;;;5032651;28;20674;-71
2024/03/03 08:09:44;;;;;;;2.40;2.10;;;21.10;55.90;;;;;;5032538;28;20410;-71
2024/03/03 08:12:09;;;;;;;3.67;2.40;;;21.20;56.00;;;;;;5032542;28;20236;-69
2024/03/03 08:14:35;;;;;;;2.77;2.40;;;21.20;56.00;;;;;;5032397;28;20548;-70
2024/03/03 08:17:01;;;;;;;2.60;2.10;;;21.20;56.00;;;;;;5032393;28;20225;-71
2024/03/03 08:19:27;;;;;;;3.10;2.40;;;21.20;56.00;;;;;;5032344;28;20202;-71
2024/03/03 08:21:53;;;;;;;3.13;2.23;;;21.20;56.00;;;;;;5032422;28;20170;-71
2024/03/03 08:24:19;;;;;;;2.50;2.30;;;21.20;56.00;;;;;;5032373;28;20517;-70
2024/03/03 08:26:48;;;;;;;2.30;2.10;;;21.20;56.00;;;;;;5032411;28;20190;-71
2024/03/03 08:29:14;;;;;;;3.40;2.57;;;21.20;56.00;;;;;;5032175;28;20244;-71
2024/03/03 08:31:41;;;;;;;2.67;2.17;;;21.20;56.00;;;;;;5032152;28;20422;-69
2024/03/03 08:34:07;;;;;;;3.80;2.60;;;21.20;56.00;;;;;;5032087;28;20192;-70
2024/03/03 08:36:33;;;;;;;3.00;2.53;;;21.20;56.00;;;;;;5032333;28;20410;-71
2024/03/03 08:38:59;;;;;;;5.63;2.70;;;21.20;56.00;;;;;;5032080;28;20772;-70
2024/03/03 08:41:24;;;;;;;3.57;2.20;;;21.20;56.00;;;;;;5032191;28;20204;-70
2024/03/03 08:43:50;;;;;;;2.37;2.17;;;21.20;56.00;;;;;;5031854;28;20278;-70
2024/03/03 08:46:15;;;;;;;2.80;2.60;;;21.20;56.00;;;;;;5032231;28;20257;-71
2024/03/03 08:48:41;;;;;;;3.30;2.40;;;21.20;56.00;;;;;;5031892;28;20226;-71
2024/03/03 08:51:08;;;;;;;2.93;2.73;;;21.20;56.00;;;;;;5031806;28;20551;-69
2024/03/03 08:53:33;;;;;;;4.47;2.47;;;21.20;56.10;;;;;;5031968;28;20204;-71
2024/03/03 08:55:59;;;;;;;3.37;2.50;;;21.30;56.20;;;;;;5031715;28;20414;-70
2024/03/03 08:58:26;;;;;;;2.77;2.57;;;21.30;56.10;;;;;;5031709;28;20658;-71
2024/03/03 09:00:52;;;;;;;3.70;3.30;;;21.30;56.00;;;;;;5031345;28;20469;-70
2024/03/03 09:03:18;;;;;;;5.07;4.10;;;21.30;55.90;;;;;;5031575;28;20426;-70
2024/03/03 09:05:44;;;;;;;7.37;5.27;;;21.30;55.70;;;;;;5031530;28;20164;-71
2024/03/03 09:08:10;;;;;;;4.77;4.30;;;21.20;55.60;;;;;;5031450;28;20419;-71
2024/03/03 09:10:35;;;;;;;7.13;5.60;;;21.20;55.60;;;;;;5031408;28;20406;-70
2024/03/03 09:13:02;;;;;;;4.13;2.57;;;21.20;55.60;;;;;;5031331;28;20205;-70
2024/03/03 09:15:28;;;;;;;6.73;4.73;;;21.20;55.80;;;;;;5031839;28;20184;-72
2024/03/03 09:17:53;;;;;;;4.37;3.60;;;21.20;55.80;;;;;;5033168;28;20450;-71
2024/03/03 09:20:20;;;;;;;4.93;3.23;;;21.20;55.80;;;;;;5033095;28;20195;-70
2024/03/03 09:22:46;;;;;;;6.97;2.90;;;21.30;55.90;;;;;;5032768;28;20195;-70
2024/03/03 09:25:12;;;;;;;6.10;3.70;;;21.30;55.90;;;;;;5031720;28;20406;-71
2024/03/03 09:27:37;;;;;;;4.57;2.83;;;21.30;56.00;;;;;;5031944;28;20399;-71
2024/03/03 09:30:03;;;;;;;3.73;3.27;;;21.30;56.00;;;;;;5032181;28;20265;-72
2024/03/03 09:32:30;;;;;;;3.57;3.27;;;21.30;56.00;;;;;;5033234;28;20270;-74
2024/03/03 09:34:56;;;;;;;4.50;3.90;;;21.30;55.90;;;;;;5033097;28;20442;-72
2024/03/03 09:37:22;;;;;;;3.07;2.50;;;21.30;55.90;;;;;;5031484;28;20503;-70
2024/03/03 09:39:47;;;;;;;3.77;2.97;;;21.30;55.90;;;;;;5031073;28;20282;-71
2024/03/03 09:42:14;;;;;;;3.73;3.43;;;21.30;55.90;;;;;;5031179;28;20448;-70
2024/03/03 09:44:43;;;;;;;4.43;3.37;;;21.30;55.90;;;;;;5031080;28;20202;-70
2024/03/03 09:47:13;;;;;;;10.80;4.47;;;21.30;55.90;;;;;;5031434;28;21260;-70
2024/03/03 09:49:39;;;;;;;6.20;3.40;;;21.30;55.90;;;;;;5031205;28;20406;-70
2024/03/03 09:52:11;;;;;;;3.80;2.87;;;21.30;55.90;;;;;;5033468;28;20434;-70
2024/03/03 09:54:39;;;;;;;3.90;3.43;;;21.30;55.90;;;;;;5055805;28;20808;-69
2024/03/03 09:57:13;;;;;;;3.10;2.80;;;21.30;55.90;;;;;;5065035;28;20456;-70
2024/03/03 09:59:44;;;;;;;3.80;3.40;;;21.30;55.90;;;;;;5061698;28;20452;-71
2024/03/03 10:02:15;;;;;;;4.23;3.03;;;21.30;55.90;;;;;;5056274;28;20422;-70
2024/03/03 10:04:44;;;;;;;3.17;2.87;;;21.30;55.90;;;;;;5066953;28;20432;-70
2024/03/03 10:07:11;;;;;;;5.83;3.67;;;21.30;55.90;;;;;;5056941;28;20413;-70
2024/03/03 10:09:38;;;;;;;4.57;3.27;;;21.30;55.90;;;;;;5060245;28;20414;-70
2024/03/03 10:12:06;;;;;;;5.20;3.43;;;21.30;55.90;;;;;;5063883;28;20489;-70
2024/03/03 10:14:33;;;;;;;3.47;2.93;;;21.30;55.90;;;;;;5052897;28;20445;-71
2024/03/03 10:16:59;;;;;;;4.00;3.70;;;21.30;55.90;;;;;;5045688;28;20405;-71
2024/03/03 10:19:26;;;;;;;3.47;3.07;;;21.30;55.90;;;;;;5041621;28;20418;-70
2024/03/03 10:21:55;;;;;;;2.87;2.67;;;21.30;55.90;;;;;;5041829;28;20179;-71
2024/03/03 10:24:29;;;;;;;4.77;3.70;;;21.30;55.80;;;;;;5047364;28;20520;-70
2024/03/03 10:26:56;;;;;;;3.23;2.70;;;21.30;55.70;;;;;;5040783;28;20498;-69
2024/03/03 10:29:26;;;;;;;3.80;3.20;;;21.30;55.70;;;;;;5039012;28;20792;-70
2024/03/03 10:31:53;;;;;;;3.20;2.90;;;21.30;55.80;;;;;;5040410;28;20829;-70
2024/03/03 10:34:20;;;;;;;3.30;3.00;;;21.30;55.80;;;;;;5046803;28;20429;-70
2024/03/03 10:36:46;;;;;;;3.43;3.13;;;21.30;55.80;;;;;;5050444;28;20409;-70
2024/03/03 10:39:14;;;;;;;3.80;3.30;;;21.30;55.80;;;;;;5050191;28;20428;-70
2024/03/03 10:41:40;;;;;;;4.23;3.10;;;21.30;55.80;;;;;;5050353;28;20793;-71
2024/03/03 10:44:09;;;;;;;3.17;2.63;;;21.30;55.90;;;;;;5050399;28;20520;-71
2024/03/03 10:46:37;;;;;;;3.17;2.87;;;21.30;55.90;;;;;;5032706;28;20421;-71
2024/03/03 10:49:03;;;;;;;4.40;4.00;;;21.30;55.90;;;;;;5051030;28;20417;-70
2024/03/03 10:51:29;;;;;;;3.80;3.40;;;21.30;55.90;;;;;;5050616;28;20943;-70
2024/03/03 10:53:56;;;;;;;4.00;3.60;;;21.30;55.90;;;;;;5050660;28;20203;-69
2024/03/03 10:56:22;;;;;;;4.47;3.50;;;21.30;55.90;;;;;;5051005;28;20507;-70
2024/03/03 10:58:51;;;;;;;4.07;3.67;;;21.30;55.90;;;;;;5050809;28;20424;-70
2024/03/03 11:01:18;;;;;;;4.10;3.70;;;21.30;55.80;;;;;;5050818;28;20530;-70
2024/03/03 11:03:48;;;;;;;3.60;3.30;;;21.30;55.80;;;;;;5048635;28;20429;-71
2024/03/03 11:06:15;;;;;;;5.60;3.87;;;21.30;56.40;;;;;;5051483;28;20463;-72
2024/03/03 11:08:49;;;;;;;3.73;3.40;;;21.30;55.80;;;;;;5051170;28;20417;-73
2024/03/03 11:11:19;;;;;;;4.70;3.80;;;21.30;55.80;;;;;;5050690;28;20401;-70
2024/03/03 11:13:58;;;;;;;7.37;4.27;;;21.30;55.70;;;;;;5050992;28;20818;-70
2024/03/03 11:16:30;;;;;;;4.70;4.30;;;21.30;55.70;;;;;;5050847;28;20406;-71
2024/03/03 11:19:19;;;;;;;5.37;4.13;;;21.30;55.60;;;;;;5050644;28;20448;-71
2024/03/03 11:21:54;;;;;;;3.67;3.37;;;21.30;55.60;;;;;;5049754;28;20462;-71
2024/03/03 11:24:30;;;;;;;3.90;3.50;;;21.30;55.70;;;;;;5055028;28;20511;-68
2024/03/03 11:27:05;;;;;;;4.10;3.20;;;21.30;55.70;;;;;;5055226;28;20389;-70
2024/03/03 11:29:32;;;;;;;4.87;4.10;;;21.30;55.80;;;;;;5055511;28;20385;-71
2024/03/03 11:31:58;;;;;;;4.03;3.70;;;21.30;55.80;;;;;;5055908;28;20500;-69
2024/03/03 11:34:24;;;;;;;3.43;3.13;;;21.30;55.80;;;;;;5055474;28;20864;-69
2024/03/03 11:36:51;;;;;;;4.20;3.70;;;21.30;55.80;;;;;;5053676;28;20496;-71
2024/03/03 11:39:18;;;;;;;4.17;3.43;;;21.30;55.70;;;;;;5055872;28;20434;-70
2024/03/03 11:41:44;;;;;;;6.23;3.57;;;21.30;55.70;;;;;;5055697;28;20417;-71
2024/03/03 11:44:35;;;;;;;3.87;3.47;;;21.30;55.70;;;;;;5054406;28;20514;-71
2024/03/03 11:47:04;;;;;;;4.27;3.67;;;21.30;55.80;;;;;;5055863;28;20405;-70
2024/03/03 11:49:31;;;;;;;3.93;3.53;;;21.30;55.70;;;;;;5055123;28;20398;-70
2024/03/03 11:51:57;;;;;;;5.70;3.67;;;21.30;55.70;;;;;;5054800;28;20405;-71
2024/03/03 11:54:36;;;;;;;4.10;3.77;;;21.30;55.70;;;;;;5054411;28;20425;-70
2024/03/03 11:57:01;;;;;;;4.17;3.77;;;21.30;55.70;;;;;;5054993;28;20390;-71
2024/03/03 11:59:32;;;;;;;4.37;3.20;;;21.30;55.70;;;;;;5052923;28;20475;-70
2024/03/03 12:01:59;;;;;;;4.00;3.70;;;21.30;55.70;;;;;;5054047;28;20178;-69
2024/03/03 12:04:25;;;;;;;3.90;3.60;;;21.30;55.70;;;;;;5053416;28;20928;-69
2024/03/03 12:06:51;;;;;;;4.73;3.83;;;21.30;55.70;;;;;;5053818;28;20468;-68
2024/03/03 12:09:20;;;;;;;3.93;3.40;;;21.30;55.70;;;;;;5053842;28;20908;-69
2024/03/03 12:11:48;;;;;;;4.00;3.60;;;21.30;55.60;;;;;;5053271;28;20262;-67
2024/03/03 12:15:03;;;;;;;4.20;3.80;;;21.30;55.60;;;;;;5053357;28;20441;-70
2024/03/03 12:17:29;;;;;;;5.03;3.53;;;21.30;55.60;;;;;;5048816;28;20448;-69
2024/03/03 12:19:57;;;;;;;3.50;3.20;;;21.30;55.60;;;;;;5053425;28;20850;-70
2024/03/03 12:22:22;;;;;;;4.10;3.40;;;21.30;55.60;;;;;;5053506;28;20421;-70
2024/03/03 12:24:55;;;;;;;5.13;3.50;;;21.30;55.70;;;;;;5053310;28;20437;-70
2024/03/03 12:27:21;;;;;;;4.63;3.57;;;21.30;55.60;;;;;;5053399;28;20175;-69
2024/03/03 12:29:59;;;;;;;6.80;3.80;;;21.30;55.70;;;;;;5053561;28;20478;-70
2024/03/03 12:32:26;;;;;;;3.63;3.20;;;21.30;55.60;;;;;;5053234;28;20252;-70
2024/03/03 12:34:52;;;;;;;3.93;3.23;;;21.30;55.70;;;;;;5051481;28;20429;-70
2024/03/03 12:37:19;;;;;;;5.90;3.70;;;21.30;55.60;;;;;;5053193;28;20799;-70
2024/03/03 12:39:45;;;;;;;4.37;3.97;;;21.30;55.60;;;;;;5053015;28;20255;-71
2024/03/03 12:42:10;;;;;;;4.17;3.77;;;21.20;55.50;;;;;;5053138;28;20406;-69
2024/03/03 12:44:36;;;;;;;4.00;3.60;;;21.30;55.60;;;;;;5053458;28;20199;-69
2024/03/03 12:47:01;;;;;;;4.17;3.77;;;21.30;55.60;;;;;;5053327;28;20278;-69